sensor_id;sensor_type;location;lat;lon;timestamp;P1;durP1;ratioP1;P2;durP2;ratioP2
57985;SDS011;43788;42.670;23.330;2023-04-07T08:47:59;0.47;;;0.47;;
57985;SDS011;43788;42.670;23.330;2023-04-07T08:50:28;1.23;;;0.40;;
57985;SDS011;43788;42.670;23.330;2023-04-07T08:52:54;0.30;;;0.30;;
57985;SDS011;43788;42.670;23.330;2023-04-07T08:55:22;0.30;;;0.30;;
57985;SDS011;43788;42.670;23.330;2023-04-07T08:57:48;0.30;;;0.30;;
57985;SDS011;43788;42.670;23.330;2023-04-07T09:00:14;0.45;;;0.30;;
57985;SDS011;43788;42.670;23.330;2023-04-07T09:02:41;0.17;;;0.17;;
57985;SDS011;43788;42.670;23.330;2023-04-07T09:05:12;0.40;;;0.35;;
57985;SDS011;43788;42.670;23.330;2023-04-07T09:07:41;0.32;;;0.32;;
57985;SDS011;43788;42.670;23.330;2023-04-07T09:10:09;0.30;;;0.30;;
57985;SDS011;43788;42.670;23.330;2023-04-07T09:12:35;1.58;;;0.38;;
57985;SDS011;43788;42.670;23.330;2023-04-07T09:15:03;0.40;;;0.40;;
57985;SDS011;43788;42.670;23.330;2023-04-07T09:17:30;0.40;;;0.40;;
57985;SDS011;43788;42.670;23.330;2023-04-07T09:19:57;0.22;;;0.22;;
57985;SDS011;43788;42.670;23.330;2023-04-07T09:22:44;0.30;;;0.30;;
57985;SDS011;43788;42.670;23.330;2023-04-07T09:25:22;0.30;;;0.30;;
57985;SDS011;43788;42.670;23.330;2023-04-07T09:27:57;0.57;;;0.38;;
57985;SDS011;43788;42.670;23.330;2023-04-07T09:30:32;0.45;;;0.45;;
57985;SDS011;43788;42.670;23.330;2023-04-07T09:46:10;0.75;;;0.60;;
57985;SDS011;43788;42.670;23.330;2023-04-07T09:48:36;0.70;;;0.70;;
57985;SDS011;43788;42.670;23.330;2023-04-07T09:51:45;0.50;;;0.50;;
57985;SDS011;43788;42.670;23.330;2023-04-07T09:53:58;0.32;;;0.32;;
57985;SDS011;43788;42.670;23.330;2023-04-07T09:56:35;0.40;;;0.40;;
57985;SDS011;43788;42.670;23.330;2023-04-07T10:02:16;0.40;;;0.40;;
57985;SDS011;43788;42.670;23.330;2023-04-07T10:08:22;0.40;;;0.30;;
57985;SDS011;43788;42.670;23.330;2023-04-07T10:10:48;0.50;;;0.50;;
57985;SDS011;43788;42.670;23.330;2023-04-07T10:13:17;0.40;;;0.40;;
57985;SDS011;43788;42.670;23.330;2023-04-07T10:15:44;0.30;;;0.30;;
57985;SDS011;43788;42.670;23.330;2023-04-07T10:18:10;0.30;;;0.30;;
57985;SDS011;43788;42.670;23.330;2023-04-07T10:27:10;0.55;;;0.55;;
57985;SDS011;43788;42.670;23.330;2023-04-07T10:29:54;0.40;;;0.40;;
57985;SDS011;43788;42.670;23.330;2023-04-07T10:32:23;0.40;;;0.40;;
57985;SDS011;43788;42.670;23.330;2023-04-07T10:37:16;0.57;;;0.57;;
57985;SDS011;43788;42.670;23.330;2023-04-07T10:45:08;0.50;;;0.50;;
57985;SDS011;43788;42.670;23.330;2023-04-07T10:47:34;0.70;;;0.70;;
57985;SDS011;43788;42.670;23.330;2023-04-07T10:50:44;0.50;;;0.50;;
57985;SDS011;43788;42.670;23.330;2023-04-07T10:53:18;0.45;;;0.45;;
57985;SDS011;43788;42.670;23.330;2023-04-07T10:55:53;1.33;;;0.60;;
57985;SDS011;43788;42.670;23.330;2023-04-07T10:58:23;0.75;;;0.52;;
57985;SDS011;43788;42.670;23.330;2023-04-07T11:03:27;0.50;;;0.50;;
57985;SDS011;43788;42.670;23.330;2023-04-07T11:06:05;0.20;;;0.20;;
57985;SDS011;43788;42.670;23.330;2023-04-07T11:11:02;0.45;;;0.45;;
57985;SDS011;43788;42.670;23.330;2023-04-07T11:13:54;0.30;;;0.30;;
57985;SDS011;43788;42.670;23.330;2023-04-07T11:16:18;0.17;;;0.17;;
57985;SDS011;43788;42.670;23.330;2023-04-07T11:18:59;0.20;;;0.20;;
57985;SDS011;43788;42.670;23.330;2023-04-07T11:21:24;0.35;;;0.28;;
57985;SDS011;43788;42.670;23.330;2023-04-07T11:23:50;1.65;;;0.52;;
57985;SDS011;43788;42.670;23.330;2023-04-07T11:26:15;0.52;;;0.47;;
57985;SDS011;43788;42.670;23.330;2023-04-07T11:28:54;0.47;;;0.47;;
57985;SDS011;43788;42.670;23.330;2023-04-07T11:31:29;0.32;;;0.32;;
57985;SDS011;43788;42.670;23.330;2023-04-07T11:33:57;0.20;;;0.20;;
57985;SDS011;43788;42.670;23.330;2023-04-07T11:36:42;0.20;;;0.20;;
57985;SDS011;43788;42.670;23.330;2023-04-07T11:39:17;0.50;;;0.50;;
57985;SDS011;43788;42.670;23.330;2023-04-07T11:41:48;0.30;;;0.30;;
57985;SDS011;43788;42.670;23.330;2023-04-07T11:44:14;0.22;;;0.22;;
57985;SDS011;43788;42.670;23.330;2023-04-07T11:46:59;1.05;;;0.60;;
57985;SDS011;43788;42.670;23.330;2023-04-07T11:49:27;0.60;;;0.60;;
57985;SDS011;43788;42.670;23.330;2023-04-07T11:52:05;0.98;;;0.75;;
57985;SDS011;43788;42.670;23.330;2023-04-07T11:54:40;0.10;;;0.10;;
57985;SDS011;43788;42.670;23.330;2023-04-07T11:57:23;0.17;;;0.17;;
57985;SDS011;43788;42.670;23.330;2023-04-07T12:00:05;0.35;;;0.35;;
57985;SDS011;43788;42.670;23.330;2023-04-07T12:02:34;0.35;;;0.35;;
57985;SDS011;43788;42.670;23.330;2023-04-07T12:05:01;0.25;;;0.25;;
57985;SDS011;43788;42.670;23.330;2023-04-07T12:07:27;0.30;;;0.30;;
57985;SDS011;43788;42.670;23.330;2023-04-07T12:09:53;0.57;;;0.57;;
57985;SDS011;43788;42.670;23.330;2023-04-07T12:13:00;0.40;;;0.40;;
57985;SDS011;43788;42.670;23.330;2023-04-07T12:15:34;0.20;;;0.20;;
57985;SDS011;43788;42.670;23.330;2023-04-07T12:18:01;0.20;;;0.20;;
57985;SDS011;43788;42.670;23.330;2023-04-07T12:20:27;0.38;;;0.38;;
57985;SDS011;43788;42.670;23.330;2023-04-07T12:23:01;0.40;;;0.40;;
57985;SDS011;43788;42.670;23.330;2023-04-07T12:25:43;0.32;;;0.32;;
57985;SDS011;43788;42.670;23.330;2023-04-07T12:28:20;0.40;;;0.40;;
57985;SDS011;43788;42.670;23.330;2023-04-07T12:31:09;0.43;;;0.43;;
57985;SDS011;43788;42.670;23.330;2023-04-07T12:33:35;2.08;;;0.85;;
57985;SDS011;43788;42.670;23.330;2023-04-07T12:36:10;0.45;;;0.45;;
57985;SDS011;43788;42.670;23.330;2023-04-07T12:38:42;0.35;;;0.35;;
57985;SDS011;43788;42.670;23.330;2023-04-07T12:41:08;0.77;;;0.47;;
57985;SDS011;43788;42.670;23.330;2023-04-07T12:43:40;0.50;;;0.40;;
57985;SDS011;43788;42.670;23.330;2023-04-07T12:46:05;0.28;;;0.28;;
57985;SDS011;43788;42.670;23.330;2023-04-07T12:48:31;0.10;;;0.10;;
57985;SDS011;43788;42.670;23.330;2023-04-07T12:50:56;0.63;;;0.63;;
57985;SDS011;43788;42.670;23.330;2023-04-07T12:53:22;0.40;;;0.40;;
57985;SDS011;43788;42.670;23.330;2023-04-07T12:55:50;0.10;;;0.10;;
57985;SDS011;43788;42.670;23.330;2023-04-07T12:58:16;0.40;;;0.40;;
57985;SDS011;43788;42.670;23.330;2023-04-07T13:00:42;0.50;;;0.50;;
57985;SDS011;43788;42.670;23.330;2023-04-07T13:03:07;0.57;;;0.47;;
57985;SDS011;43788;42.670;23.330;2023-04-07T13:05:33;0.30;;;0.30;;
57985;SDS011;43788;42.670;23.330;2023-04-07T13:07:59;0.43;;;0.43;;
57985;SDS011;43788;42.670;23.330;2023-04-07T13:10:25;0.40;;;0.38;;
57985;SDS011;43788;42.670;23.330;2023-04-07T13:12:52;0.35;;;0.35;;
57985;SDS011;43788;42.670;23.330;2023-04-07T13:15:17;0.45;;;0.45;;
57985;SDS011;43788;42.670;23.330;2023-04-07T13:17:44;0.47;;;0.47;;
57985;SDS011;43788;42.670;23.330;2023-04-07T13:20:10;0.20;;;0.20;;
57985;SDS011;43788;42.670;23.330;2023-04-07T13:22:36;0.38;;;0.38;;
57985;SDS011;43788;42.670;23.330;2023-04-07T13:25:02;0.40;;;0.40;;
57985;SDS011;43788;42.670;23.330;2023-04-07T13:27:28;0.75;;;0.50;;
57985;SDS011;43788;42.670;23.330;2023-04-07T13:29:53;0.88;;;0.60;;
57985;SDS011;43788;42.670;23.330;2023-04-07T13:32:19;0.60;;;0.45;;
57985;SDS011;43788;42.670;23.330;2023-04-07T13:34:45;0.60;;;0.60;;
57985;SDS011;43788;42.670;23.330;2023-04-07T13:37:10;0.52;;;0.52;;
57985;SDS011;43788;42.670;23.330;2023-04-07T13:39:36;0.52;;;0.52;;
57985;SDS011;43788;42.670;23.330;2023-04-07T13:42:05;0.35;;;0.20;;
57985;SDS011;43788;42.670;23.330;2023-04-07T13:44:31;3.10;;;0.90;;
57985;SDS011;43788;42.670;23.330;2023-04-07T13:46:57;0.30;;;0.30;;
57985;SDS011;43788;42.670;23.330;2023-04-07T13:49:23;0.28;;;0.28;;
57985;SDS011;43788;42.670;23.330;2023-04-07T13:51:49;0.20;;;0.20;;
57985;SDS011;43788;42.670;23.330;2023-04-07T13:54:15;0.20;;;0.20;;
57985;SDS011;43788;42.670;23.330;2023-04-07T13:56:42;0.50;;;0.40;;
57985;SDS011;43788;42.670;23.330;2023-04-07T13:59:07;0.50;;;0.50;;
57985;SDS011;43788;42.670;23.330;2023-04-07T14:01:33;0.20;;;0.20;;
57985;SDS011;43788;42.670;23.330;2023-04-07T14:03:59;0.50;;;0.50;;
57985;SDS011;43788;42.670;23.330;2023-04-07T14:06:27;0.30;;;0.30;;
57985;SDS011;43788;42.670;23.330;2023-04-07T14:08:52;0.45;;;0.45;;
57985;SDS011;43788;42.670;23.330;2023-04-07T14:11:18;0.30;;;0.30;;
57985;SDS011;43788;42.670;23.330;2023-04-07T14:13:44;0.47;;;0.47;;
57985;SDS011;43788;42.670;23.330;2023-04-07T14:16:13;0.20;;;0.20;;
57985;SDS011;43788;42.670;23.330;2023-04-07T14:18:39;0.20;;;0.20;;
57985;SDS011;43788;42.670;23.330;2023-04-07T14:21:05;0.38;;;0.38;;
57985;SDS011;43788;42.670;23.330;2023-04-07T14:23:30;0.20;;;0.20;;
57985;SDS011;43788;42.670;23.330;2023-04-07T14:25:59;0.30;;;0.30;;
57985;SDS011;43788;42.670;23.330;2023-04-07T14:28:28;0.30;;;0.30;;
57985;SDS011;43788;42.670;23.330;2023-04-07T14:30:57;0.40;;;0.40;;
57985;SDS011;43788;42.670;23.330;2023-04-07T14:35:52;0.50;;;0.43;;
57985;SDS011;43788;42.670;23.330;2023-04-07T14:38:17;0.30;;;0.30;;
57985;SDS011;43788;42.670;23.330;2023-04-07T14:40:42;0.40;;;0.40;;
57985;SDS011;43788;42.670;23.330;2023-04-07T14:43:09;0.38;;;0.38;;
57985;SDS011;43788;42.670;23.330;2023-04-07T14:45:36;1.95;;;0.40;;
57985;SDS011;43788;42.670;23.330;2023-04-07T14:48:02;0.43;;;0.43;;
57985;SDS011;43788;42.670;23.330;2023-04-07T14:50:30;0.50;;;0.50;;
57985;SDS011;43788;42.670;23.330;2023-04-07T14:52:56;0.25;;;0.25;;
57985;SDS011;43788;42.670;23.330;2023-04-07T14:55:22;0.73;;;0.60;;
57985;SDS011;43788;42.670;23.330;2023-04-07T14:57:48;0.20;;;0.20;;
57985;SDS011;43788;42.670;23.330;2023-04-07T15:00:13;0.50;;;0.50;;
57985;SDS011;43788;42.670;23.330;2023-04-07T15:02:39;0.43;;;0.43;;
57985;SDS011;43788;42.670;23.330;2023-04-07T15:05:05;0.40;;;0.40;;
57985;SDS011;43788;42.670;23.330;2023-04-07T15:07:31;0.30;;;0.30;;
57985;SDS011;43788;42.670;23.330;2023-04-07T15:09:56;0.52;;;0.52;;
57985;SDS011;43788;42.670;23.330;2023-04-07T15:12:23;0.20;;;0.20;;
57985;SDS011;43788;42.670;23.330;2023-04-07T15:14:50;0.35;;;0.35;;
57985;SDS011;43788;42.670;23.330;2023-04-07T15:17:21;0.63;;;0.50;;
57985;SDS011;43788;42.670;23.330;2023-04-07T15:19:47;0.20;;;0.20;;
57985;SDS011;43788;42.670;23.330;2023-04-07T15:22:13;0.60;;;0.38;;
57985;SDS011;43788;42.670;23.330;2023-04-07T15:24:38;0.82;;;0.45;;
57985;SDS011;43788;42.670;23.330;2023-04-07T15:27:04;0.50;;;0.50;;
57985;SDS011;43788;42.670;23.330;2023-04-07T15:29:30;0.20;;;0.20;;
57985;SDS011;43788;42.670;23.330;2023-04-07T15:31:55;0.30;;;0.15;;
57985;SDS011;43788;42.670;23.330;2023-04-07T15:34:21;1.00;;;0.35;;
57985;SDS011;43788;42.670;23.330;2023-04-07T15:36:46;0.38;;;0.38;;
57985;SDS011;43788;42.670;23.330;2023-04-07T15:39:12;0.30;;;0.30;;
57985;SDS011;43788;42.670;23.330;2023-04-07T15:41:37;0.50;;;0.50;;
57985;SDS011;43788;42.670;23.330;2023-04-07T15:44:02;1.80;;;0.60;;
57985;SDS011;43788;42.670;23.330;2023-04-07T15:46:28;0.35;;;0.35;;
57985;SDS011;43788;42.670;23.330;2023-04-07T15:48:55;2.70;;;0.43;;
57985;SDS011;43788;42.670;23.330;2023-04-07T15:51:21;0.40;;;0.40;;
57985;SDS011;43788;42.670;23.330;2023-04-07T15:53:47;0.30;;;0.30;;
57985;SDS011;43788;42.670;23.330;2023-04-07T15:56:19;0.30;;;0.30;;
57985;SDS011;43788;42.670;23.330;2023-04-07T15:58:48;0.80;;;0.40;;
57985;SDS011;43788;42.670;23.330;2023-04-07T16:01:13;0.43;;;0.32;;
57985;SDS011;43788;42.670;23.330;2023-04-07T16:03:39;0.47;;;0.43;;
57985;SDS011;43788;42.670;23.330;2023-04-07T16:10:01;0.38;;;0.38;;
57985;SDS011;43788;42.670;23.330;2023-04-07T16:12:56;0.40;;;0.40;;
57985;SDS011;43788;42.670;23.330;2023-04-07T16:15:21;0.30;;;0.30;;
57985;SDS011;43788;42.670;23.330;2023-04-07T16:17:47;0.40;;;0.30;;
57985;SDS011;43788;42.670;23.330;2023-04-07T16:20:14;0.30;;;0.30;;
57985;SDS011;43788;42.670;23.330;2023-04-07T16:22:40;0.40;;;0.40;;
57985;SDS011;43788;42.670;23.330;2023-04-07T16:25:13;0.63;;;0.45;;
57985;SDS011;43788;42.670;23.330;2023-04-07T16:27:40;0.55;;;0.52;;
57985;SDS011;43788;42.670;23.330;2023-04-07T16:30:06;0.30;;;0.30;;
57985;SDS011;43788;42.670;23.330;2023-04-07T16:32:33;0.30;;;0.30;;
57985;SDS011;43788;42.670;23.330;2023-04-07T16:34:59;0.40;;;0.40;;
57985;SDS011;43788;42.670;23.330;2023-04-07T16:37:25;0.50;;;0.50;;
57985;SDS011;43788;42.670;23.330;2023-04-07T16:39:52;0.20;;;0.20;;
57985;SDS011;43788;42.670;23.330;2023-04-07T16:42:19;0.63;;;0.63;;
57985;SDS011;43788;42.670;23.330;2023-04-07T16:44:45;0.30;;;0.30;;
57985;SDS011;43788;42.670;23.330;2023-04-07T16:47:10;0.60;;;0.60;;
57985;SDS011;43788;42.670;23.330;2023-04-07T16:49:37;0.38;;;0.38;;
57985;SDS011;43788;42.670;23.330;2023-04-07T16:52:06;0.60;;;0.50;;
57985;SDS011;43788;42.670;23.330;2023-04-07T16:54:33;0.68;;;0.30;;
57985;SDS011;43788;42.670;23.330;2023-04-07T16:57:00;0.30;;;0.30;;
57985;SDS011;43788;42.670;23.330;2023-04-07T16:59:25;0.30;;;0.30;;
57985;SDS011;43788;42.670;23.330;2023-04-07T17:01:51;0.40;;;0.40;;
57985;SDS011;43788;42.670;23.330;2023-04-07T17:04:16;0.45;;;0.35;;
57985;SDS011;43788;42.670;23.330;2023-04-07T17:06:41;2.55;;;0.30;;
57985;SDS011;43788;42.670;23.330;2023-04-07T17:09:07;0.38;;;0.38;;
57985;SDS011;43788;42.670;23.330;2023-04-07T17:11:32;0.30;;;0.30;;
57985;SDS011;43788;42.670;23.330;2023-04-07T17:13:58;0.40;;;0.40;;
57985;SDS011;43788;42.670;23.330;2023-04-07T17:16:23;0.28;;;0.28;;
57985;SDS011;43788;42.670;23.330;2023-04-07T17:18:48;0.38;;;0.38;;
57985;SDS011;43788;42.670;23.330;2023-04-07T17:21:15;0.30;;;0.30;;
57985;SDS011;43788;42.670;23.330;2023-04-07T17:23:41;0.25;;;0.25;;
57985;SDS011;43788;42.670;23.330;2023-04-07T17:26:06;0.20;;;0.20;;
57985;SDS011;43788;42.670;23.330;2023-04-07T17:28:31;0.28;;;0.28;;
57985;SDS011;43788;42.670;23.330;2023-04-07T17:30:57;0.40;;;0.40;;
57985;SDS011;43788;42.670;23.330;2023-04-07T17:33:23;2.75;;;0.98;;
57985;SDS011;43788;42.670;23.330;2023-04-07T17:35:49;2.28;;;0.50;;
57985;SDS011;43788;42.670;23.330;2023-04-07T17:38:15;0.45;;;0.45;;
57985;SDS011;43788;42.670;23.330;2023-04-07T17:40:40;0.50;;;0.50;;
57985;SDS011;43788;42.670;23.330;2023-04-07T17:43:06;0.65;;;0.40;;
57985;SDS011;43788;42.670;23.330;2023-04-07T17:45:31;0.40;;;0.40;;
57985;SDS011;43788;42.670;23.330;2023-04-07T17:47:57;0.35;;;0.35;;
57985;SDS011;43788;42.670;23.330;2023-04-07T17:50:25;0.30;;;0.30;;
57985;SDS011;43788;42.670;23.330;2023-04-07T17:52:51;0.20;;;0.20;;
57985;SDS011;43788;42.670;23.330;2023-04-07T17:55:16;0.43;;;0.30;;
57985;SDS011;43788;42.670;23.330;2023-04-07T17:57:42;0.52;;;0.50;;
57985;SDS011;43788;42.670;23.330;2023-04-07T18:00:08;0.47;;;0.47;;
57985;SDS011;43788;42.670;23.330;2023-04-07T18:02:34;0.35;;;0.32;;
57985;SDS011;43788;42.670;23.330;2023-04-07T18:05:00;0.40;;;0.40;;
57985;SDS011;43788;42.670;23.330;2023-04-07T18:07:28;0.30;;;0.30;;
57985;SDS011;43788;42.670;23.330;2023-04-07T18:09:55;0.40;;;0.40;;
57985;SDS011;43788;42.670;23.330;2023-04-07T18:12:21;0.30;;;0.30;;
57985;SDS011;43788;42.670;23.330;2023-04-07T18:14:46;0.50;;;0.50;;
57985;SDS011;43788;42.670;23.330;2023-04-07T18:17:12;0.82;;;0.70;;
57985;SDS011;43788;42.670;23.330;2023-04-07T18:19:37;0.40;;;0.40;;
57985;SDS011;43788;42.670;23.330;2023-04-07T18:22:03;0.35;;;0.35;;
57985;SDS011;43788;42.670;23.330;2023-04-07T18:24:28;1.50;;;0.73;;
57985;SDS011;43788;42.670;23.330;2023-04-07T18:26:54;0.43;;;0.30;;
57985;SDS011;43788;42.670;23.330;2023-04-07T18:29:21;0.40;;;0.40;;
57985;SDS011;43788;42.670;23.330;2023-04-07T18:31:47;0.40;;;0.40;;
57985;SDS011;43788;42.670;23.330;2023-04-07T18:34:13;0.20;;;0.20;;
57985;SDS011;43788;42.670;23.330;2023-04-07T18:36:39;0.38;;;0.38;;
57985;SDS011;43788;42.670;23.330;2023-04-07T18:39:07;0.20;;;0.20;;
57985;SDS011;43788;42.670;23.330;2023-04-07T18:41:33;0.25;;;0.25;;
57985;SDS011;43788;42.670;23.330;2023-04-07T18:43:59;0.40;;;0.40;;
57985;SDS011;43788;42.670;23.330;2023-04-07T18:46:24;0.90;;;0.60;;
57985;SDS011;43788;42.670;23.330;2023-04-07T18:48:50;0.52;;;0.50;;
57985;SDS011;43788;42.670;23.330;2023-04-07T18:51:15;0.52;;;0.52;;
57985;SDS011;43788;42.670;23.330;2023-04-07T18:53:41;0.65;;;0.65;;
57985;SDS011;43788;42.670;23.330;2023-04-07T18:56:06;0.50;;;0.43;;
57985;SDS011;43788;42.670;23.330;2023-04-07T18:58:32;0.70;;;0.70;;
57985;SDS011;43788;42.670;23.330;2023-04-07T19:00:59;0.63;;;0.63;;
57985;SDS011;43788;42.670;23.330;2023-04-07T19:03:24;0.30;;;0.30;;
57985;SDS011;43788;42.670;23.330;2023-04-07T19:05:50;0.50;;;0.50;;
57985;SDS011;43788;42.670;23.330;2023-04-07T19:08:15;0.80;;;0.80;;
57985;SDS011;43788;42.670;23.330;2023-04-07T19:10:41;0.50;;;0.50;;
57985;SDS011;43788;42.670;23.330;2023-04-07T19:13:06;0.30;;;0.30;;
57985;SDS011;43788;42.670;23.330;2023-04-07T19:15:32;0.40;;;0.40;;
57985;SDS011;43788;42.670;23.330;2023-04-07T19:18:01;1.48;;;0.90;;
57985;SDS011;43788;42.670;23.330;2023-04-07T19:20:27;0.40;;;0.40;;
57985;SDS011;43788;42.670;23.330;2023-04-07T19:22:57;0.43;;;0.43;;
57985;SDS011;43788;42.670;23.330;2023-04-07T19:25:22;0.60;;;0.60;;
57985;SDS011;43788;42.670;23.330;2023-04-07T19:27:48;0.70;;;0.65;;
57985;SDS011;43788;42.670;23.330;2023-04-07T19:30:14;0.70;;;0.70;;
57985;SDS011;43788;42.670;23.330;2023-04-07T19:32:40;0.82;;;0.82;;
57985;SDS011;43788;42.670;23.330;2023-04-07T19:35:06;0.55;;;0.55;;
57985;SDS011;43788;42.670;23.330;2023-04-07T19:37:32;1.00;;;0.80;;
57985;SDS011;43788;42.670;23.330;2023-04-07T19:39:58;0.65;;;0.65;;
57985;SDS011;43788;42.670;23.330;2023-04-07T19:42:24;0.43;;;0.43;;
57985;SDS011;43788;42.670;23.330;2023-04-07T19:44:50;0.60;;;0.60;;
57985;SDS011;43788;42.670;23.330;2023-04-07T19:47:15;1.55;;;0.80;;
57985;SDS011;43788;42.670;23.330;2023-04-07T19:49:43;1.05;;;0.82;;
57985;SDS011;43788;42.670;23.330;2023-04-07T19:52:10;0.60;;;0.60;;
57985;SDS011;43788;42.670;23.330;2023-04-07T19:54:35;0.50;;;0.50;;
57985;SDS011;43788;42.670;23.330;2023-04-07T19:57:00;0.80;;;0.80;;
57985;SDS011;43788;42.670;23.330;2023-04-07T19:59:26;0.65;;;0.65;;
57985;SDS011;43788;42.670;23.330;2023-04-07T20:01:52;0.50;;;0.50;;
57985;SDS011;43788;42.670;23.330;2023-04-07T20:04:17;0.52;;;0.52;;
57985;SDS011;43788;42.670;23.330;2023-04-07T20:06:43;0.77;;;0.57;;
57985;SDS011;43788;42.670;23.330;2023-04-07T20:09:08;0.38;;;0.38;;
57985;SDS011;43788;42.670;23.330;2023-04-07T20:11:35;0.68;;;0.68;;
57985;SDS011;43788;42.670;23.330;2023-04-07T20:14:01;0.90;;;0.82;;
57985;SDS011;43788;42.670;23.330;2023-04-07T20:16:27;0.60;;;0.60;;
57985;SDS011;43788;42.670;23.330;2023-04-07T20:18:55;0.40;;;0.40;;
57985;SDS011;43788;42.670;23.330;2023-04-07T20:21:21;0.70;;;0.68;;
57985;SDS011;43788;42.670;23.330;2023-04-07T20:23:46;0.75;;;0.75;;
57985;SDS011;43788;42.670;23.330;2023-04-07T20:26:11;1.40;;;0.90;;
57985;SDS011;43788;42.670;23.330;2023-04-07T20:28:37;0.68;;;0.68;;
57985;SDS011;43788;42.670;23.330;2023-04-07T20:31:02;0.68;;;0.65;;
57985;SDS011;43788;42.670;23.330;2023-04-07T20:33:28;0.40;;;0.32;;
57985;SDS011;43788;42.670;23.330;2023-04-07T20:35:53;0.55;;;0.55;;
57985;SDS011;43788;42.670;23.330;2023-04-07T20:38:19;0.55;;;0.55;;
57985;SDS011;43788;42.670;23.330;2023-04-07T20:40:46;0.57;;;0.57;;
57985;SDS011;43788;42.670;23.330;2023-04-07T20:43:11;1.70;;;0.70;;
57985;SDS011;43788;42.670;23.330;2023-04-07T20:45:38;0.70;;;0.70;;
57985;SDS011;43788;42.670;23.330;2023-04-07T20:48:03;0.70;;;0.70;;
57985;SDS011;43788;42.670;23.330;2023-04-07T20:50:29;0.80;;;0.80;;
57985;SDS011;43788;42.670;23.330;2023-04-07T20:52:54;0.40;;;0.40;;
57985;SDS011;43788;42.670;23.330;2023-04-07T20:55:20;0.63;;;0.60;;
57985;SDS011;43788;42.670;23.330;2023-04-07T20:57:45;0.88;;;0.88;;
57985;SDS011;43788;42.670;23.330;2023-04-07T21:00:11;0.60;;;0.60;;
57985;SDS011;43788;42.670;23.330;2023-04-07T21:02:37;0.75;;;0.65;;
57985;SDS011;43788;42.670;23.330;2023-04-07T21:05:03;0.35;;;0.35;;
57985;SDS011;43788;42.670;23.330;2023-04-07T21:07:29;0.63;;;0.63;;
57985;SDS011;43788;42.670;23.330;2023-04-07T21:09:55;1.10;;;0.70;;
57985;SDS011;43788;42.670;23.330;2023-04-07T21:12:20;0.55;;;0.55;;
57985;SDS011;43788;42.670;23.330;2023-04-07T21:14:46;0.55;;;0.55;;
57985;SDS011;43788;42.670;23.330;2023-04-07T21:17:12;0.47;;;0.47;;
57985;SDS011;43788;42.670;23.330;2023-04-07T21:19:37;0.50;;;0.50;;
57985;SDS011;43788;42.670;23.330;2023-04-07T21:22:05;0.55;;;0.50;;
57985;SDS011;43788;42.670;23.330;2023-04-07T21:24:30;0.77;;;0.68;;
57985;SDS011;43788;42.670;23.330;2023-04-07T21:26:56;0.40;;;0.40;;
57985;SDS011;43788;42.670;23.330;2023-04-07T21:29:21;0.60;;;0.60;;
57985;SDS011;43788;42.670;23.330;2023-04-07T21:31:47;0.60;;;0.60;;
57985;SDS011;43788;42.670;23.330;2023-04-07T21:34:12;0.50;;;0.50;;
57985;SDS011;43788;42.670;23.330;2023-04-07T21:36:38;1.10;;;0.60;;
57985;SDS011;43788;42.670;23.330;2023-04-07T21:39:07;1.15;;;0.60;;
57985;SDS011;43788;42.670;23.330;2023-04-07T21:41:33;0.47;;;0.47;;
57985;SDS011;43788;42.670;23.330;2023-04-07T21:43:58;0.52;;;0.52;;
57985;SDS011;43788;42.670;23.330;2023-04-07T21:46:24;0.40;;;0.40;;
57985;SDS011;43788;42.670;23.330;2023-04-07T21:48:51;0.60;;;0.60;;
57985;SDS011;43788;42.670;23.330;2023-04-07T21:51:16;0.65;;;0.65;;
57985;SDS011;43788;42.670;23.330;2023-04-07T21:53:42;0.55;;;0.55;;
57985;SDS011;43788;42.670;23.330;2023-04-07T21:56:07;1.50;;;0.98;;
57985;SDS011;43788;42.670;23.330;2023-04-07T21:58:33;0.80;;;0.80;;
57985;SDS011;43788;42.670;23.330;2023-04-07T22:01:01;0.88;;;0.88;;
57985;SDS011;43788;42.670;23.330;2023-04-07T22:03:29;0.88;;;0.88;;
57985;SDS011;43788;42.670;23.330;2023-04-07T22:05:58;1.20;;;1.08;;
57985;SDS011;43788;42.670;23.330;2023-04-07T22:08:25;0.70;;;0.70;;
57985;SDS011;43788;42.670;23.330;2023-04-07T22:10:51;2.55;;;1.35;;
57985;SDS011;43788;42.670;23.330;2023-04-07T22:13:16;1.58;;;1.48;;
57985;SDS011;43788;42.670;23.330;2023-04-07T22:15:42;1.30;;;1.20;;
57985;SDS011;43788;42.670;23.330;2023-04-07T22:18:07;1.92;;;1.73;;
57985;SDS011;43788;42.670;23.330;2023-04-07T22:20:33;1.42;;;1.05;;
57985;SDS011;43788;42.670;23.330;2023-04-07T22:22:58;1.15;;;1.08;;
57985;SDS011;43788;42.670;23.330;2023-04-07T22:25:24;2.15;;;1.50;;
57985;SDS011;43788;42.670;23.330;2023-04-07T22:27:49;2.40;;;1.15;;
57985;SDS011;43788;42.670;23.330;2023-04-07T22:30:18;1.55;;;1.45;;
57985;SDS011;43788;42.670;23.330;2023-04-07T22:32:44;1.13;;;1.10;;
57985;SDS011;43788;42.670;23.330;2023-04-07T22:35:09;1.65;;;1.10;;
57985;SDS011;43788;42.670;23.330;2023-04-07T22:37:35;3.10;;;1.20;;
57985;SDS011;43788;42.670;23.330;2023-04-07T22:40:02;1.50;;;1.40;;
57985;SDS011;43788;42.670;23.330;2023-04-07T22:42:27;1.98;;;0.90;;
57985;SDS011;43788;42.670;23.330;2023-04-07T22:44:53;0.80;;;0.80;;
57985;SDS011;43788;42.670;23.330;2023-04-07T22:47:19;1.45;;;1.33;;
57985;SDS011;43788;42.670;23.330;2023-04-07T22:49:45;1.00;;;1.00;;
57985;SDS011;43788;42.670;23.330;2023-04-07T22:52:10;0.73;;;0.73;;
57985;SDS011;43788;42.670;23.330;2023-04-07T22:54:36;0.95;;;0.93;;
57985;SDS011;43788;42.670;23.330;2023-04-07T22:57:01;1.02;;;0.93;;
57985;SDS011;43788;42.670;23.330;2023-04-07T22:59:29;0.77;;;0.77;;
57985;SDS011;43788;42.670;23.330;2023-04-07T23:01:55;0.82;;;0.80;;
57985;SDS011;43788;42.670;23.330;2023-04-07T23:04:23;0.65;;;0.65;;
57985;SDS011;43788;42.670;23.330;2023-04-07T23:06:48;1.00;;;0.90;;
57985;SDS011;43788;42.670;23.330;2023-04-07T23:09:14;0.88;;;0.82;;
57985;SDS011;43788;42.670;23.330;2023-04-07T23:11:39;0.80;;;0.80;;
57985;SDS011;43788;42.670;23.330;2023-04-07T23:14:05;1.33;;;1.23;;
57985;SDS011;43788;42.670;23.330;2023-04-07T23:16:33;0.70;;;0.63;;
57985;SDS011;43788;42.670;23.330;2023-04-07T23:18:59;1.23;;;1.13;;
57985;SDS011;43788;42.670;23.330;2023-04-07T23:21:25;0.75;;;0.75;;
57985;SDS011;43788;42.670;23.330;2023-04-07T23:23:51;1.17;;;1.08;;
57985;SDS011;43788;42.670;23.330;2023-04-07T23:26:18;0.80;;;0.80;;
57985;SDS011;43788;42.670;23.330;2023-04-07T23:28:44;0.90;;;0.90;;
57985;SDS011;43788;42.670;23.330;2023-04-07T23:31:10;0.90;;;0.90;;
57985;SDS011;43788;42.670;23.330;2023-04-07T23:33:36;0.77;;;0.77;;
57985;SDS011;43788;42.670;23.330;2023-04-07T23:36:01;1.00;;;1.00;;
57985;SDS011;43788;42.670;23.330;2023-04-07T23:38:27;0.47;;;0.47;;
57985;SDS011;43788;42.670;23.330;2023-04-07T23:40:53;0.60;;;0.60;;
57985;SDS011;43788;42.670;23.330;2023-04-07T23:43:19;1.33;;;1.02;;
57985;SDS011;43788;42.670;23.330;2023-04-07T23:45:44;0.65;;;0.63;;
57985;SDS011;43788;42.670;23.330;2023-04-07T23:48:10;0.80;;;0.80;;
57985;SDS011;43788;42.670;23.330;2023-04-07T23:50:37;0.55;;;0.55;;
57985;SDS011;43788;42.670;23.330;2023-04-07T23:53:03;0.60;;;0.60;;
57985;SDS011;43788;42.670;23.330;2023-04-07T23:55:28;2.78;;;0.73;;
57985;SDS011;43788;42.670;23.330;2023-04-07T23:57:54;0.70;;;0.70;;
